Time,TemperatureF,DewpointF,PressureIn,WindDirection,WindDirectionDegrees,WindSpeedMPH,WindSpeedGustMPH,Humidity,HourlyPrecipIn,Conditions,Clouds,dailyrainin,SolarRadiationWatts/m^2,SoftwareType,DateUTC
2013-08-13 00:03:00,55.0,50.0,-100.00,NW,326,10.0,21.0,82,0.00,,,0.20,0.000000,,2013-08-13 04:03:00,
2013-08-13 00:13:00,55.0,50.0,-100.00,NW,326,10.0,21.0,82,0.00,,,0.20,0.000000,,2013-08-13 04:13:00,
2013-08-13 00:42:00,54.0,47.0,-100.00,NNW,341,8.0,17.0,78,0.00,,,0.20,0.000000,,2013-08-13 04:42:00,
2013-08-13 00:53:00,54.0,47.0,-100.00,NNW,341,8.0,17.0,78,0.00,,,0.20,0.000000,,2013-08-13 04:53:00,
2013-08-13 01:02:00,54.0,47.0,-100.00,NNW,341,8.0,17.0,78,0.00,,,0.20,0.000000,,2013-08-13 05:02:00,
2013-08-13 01:12:00,54.0,47.0,-100.00,NNW,341,8.0,17.0,78,0.00,,,0.20,0.000000,,2013-08-13 05:12:00,
2013-08-13 01:42:00,53.0,47.0,-100.00,NW,321,7.0,17.0,80,0.00,,,0.20,0.000000,,2013-08-13 05:42:00,
2013-08-13 01:52:00,53.0,47.0,-100.00,NW,321,7.0,17.0,80,0.00,,,0.20,0.000000,,2013-08-13 05:52:00,
2013-08-13 02:02:00,53.0,47.0,-100.00,NW,321,7.0,17.0,80,0.00,,,0.20,0.000000,,2013-08-13 06:02:00,
2013-08-13 02:11:00,53.0,47.0,-100.00,NW,321,7.0,17.0,80,0.00,,,0.20,0.000000,,2013-08-13 06:11:00,
2013-08-13 02:42:00,52.0,46.0,-100.00,NNW,339,5.0,12.0,79,0.00,,,0.20,0.000000,,2013-08-13 06:42:00,
2013-08-13 02:53:00,52.0,46.0,-100.00,NNW,339,5.0,12.0,79,0.00,,,0.20,0.000000,,2013-08-13 06:53:00,
2013-08-13 03:01:00,52.0,46.0,-100.00,NNW,339,5.0,12.0,79,0.00,,,0.20,0.000000,,2013-08-13 07:01:00,
2013-08-13 03:12:00,52.0,46.0,-100.00,NNW,339,5.0,12.0,79,0.00,,,0.20,0.000000,,2013-08-13 07:12:00,
2013-08-13 03:42:00,47.0,43.0,-100.00,WNW,285,3.0,9.0,86,0.00,,,0.20,0.000000,,2013-08-13 07:42:00,
2013-08-13 03:52:00,47.0,43.0,-100.00,WNW,285,3.0,9.0,86,0.00,,,0.20,0.000000,,2013-08-13 07:52:00,
2013-08-13 04:02:00,47.0,43.0,-100.00,WNW,285,3.0,9.0,86,0.00,,,0.20,0.000000,,2013-08-13 08:02:00,
2013-08-13 04:11:00,47.0,43.0,-100.00,WNW,285,3.0,9.0,86,0.00,,,0.20,0.000000,,2013-08-13 08:11:00,
2013-08-13 04:42:00,48.0,44.0,-100.00,NNW,336,6.0,10.0,86,0.00,,,0.20,0.000000,,2013-08-13 08:42:00,
2013-08-13 04:52:00,48.0,44.0,-100.00,NNW,336,6.0,10.0,86,0.00,,,0.20,0.000000,,2013-08-13 08:52:00,
2013-08-13 05:01:00,48.0,44.0,-100.00,NNW,336,6.0,10.0,86,0.00,,,0.20,0.000000,,2013-08-13 09:01:00,
2013-08-13 05:11:00,48.0,44.0,-100.00,NNW,336,6.0,10.0,86,0.00,,,0.20,0.000000,,2013-08-13 09:11:00,
2013-08-13 05:43:00,48.0,44.0,-100.00,NW,326,5.0,10.0,85,0.00,,,0.20,0.000000,,2013-08-13 09:43:00,
2013-08-13 05:54:00,48.0,44.0,-100.00,NW,326,5.0,10.0,85,0.00,,,0.20,0.000000,,2013-08-13 09:54:00,
2013-08-13 06:03:00,48.0,44.0,-100.00,NW,326,5.0,10.0,85,0.00,,,0.20,0.000000,,2013-08-13 10:03:00,
2013-08-13 06:12:00,48.0,44.0,-100.00,NW,326,5.0,10.0,85,0.00,,,0.20,0.000000,,2013-08-13 10:12:00,
2013-08-13 06:43:00,50.0,44.0,-100.00,NNW,347,7.0,15.0,81,0.00,,,0.20,0.000000,,2013-08-13 10:43:00,
2013-08-13 06:53:00,50.0,44.0,-100.00,NNW,347,7.0,15.0,81,0.00,,,0.20,0.000000,,2013-08-13 10:53:00,
2013-08-13 07:03:00,50.0,44.0,-100.00,NNW,347,7.0,15.0,81,0.00,,,0.20,0.000000,,2013-08-13 11:03:00,
2013-08-13 07:11:00,50.0,44.0,-100.00,NNW,347,7.0,15.0,81,0.00,,,0.20,0.000000,,2013-08-13 11:11:00,
2013-08-13 07:42:00,52.0,45.0,-100.00,North,354,8.0,15.0,76,0.00,,,-99.99,14.000000,,2013-08-13 11:42:00,
2013-08-13 07:52:00,52.0,45.0,-100.00,North,354,8.0,15.0,76,0.00,,,-99.99,14.000000,,2013-08-13 11:52:00,
2013-08-13 08:01:00,52.0,45.0,-100.00,North,354,8.0,15.0,76,0.00,,,-99.99,14.000000,,2013-08-13 12:01:00,
2013-08-13 08:12:00,52.0,45.0,-100.00,North,354,8.0,15.0,76,0.00,,,-99.99,14.000000,,2013-08-13 12:12:00,
2013-08-13 08:42:00,55.0,47.0,-100.00,NW,323,7.0,12.0,74,0.00,,,0.20,108.000000,,2013-08-13 12:42:00,
2013-08-13 08:52:00,55.0,47.0,-100.00,NW,323,7.0,12.0,74,0.00,,,0.20,108.000000,,2013-08-13 12:52:00,
2013-08-13 09:01:00,55.0,47.0,-100.00,NW,323,7.0,12.0,74,0.00,,,0.20,108.000000,,2013-08-13 13:01:00,
2013-08-13 09:11:00,55.0,47.0,-100.00,NW,323,7.0,12.0,74,0.00,,,0.20,108.000000,,2013-08-13 13:11:00,
2013-08-13 09:42:00,54.0,47.0,-100.00,NNW,329,7.0,14.0,78,0.00,,,0.20,130.000000,,2013-08-13 13:42:00,
2013-08-13 09:52:00,54.0,47.0,-100.00,NNW,329,7.0,14.0,78,0.00,,,0.20,130.000000,,2013-08-13 13:52:00,
2013-08-13 10:02:00,54.0,47.0,-100.00,NNW,329,7.0,14.0,78,0.00,,,0.20,130.000000,,2013-08-13 14:02:00,
2013-08-13 10:11:00,54.0,47.0,-100.00,NNW,329,7.0,14.0,78,0.00,,,0.20,130.000000,,2013-08-13 14:11:00,
2013-08-13 10:42:00,58.0,47.0,-100.00,North,352,10.0,17.0,67,0.00,,,0.20,319.000000,,2013-08-13 14:42:00,
2013-08-13 10:52:00,58.0,47.0,-100.00,North,352,10.0,17.0,67,0.00,,,0.20,319.000000,,2013-08-13 14:52:00,
2013-08-13 11:02:00,58.0,47.0,-100.00,North,352,10.0,17.0,67,0.00,,,0.20,319.000000,,2013-08-13 15:02:00,
2013-08-13 11:11:00,58.0,47.0,-100.00,North,352,10.0,17.0,67,0.00,,,0.20,319.000000,,2013-08-13 15:11:00,
2013-08-13 11:44:00,58.0,46.0,-100.00,NW,326,12.0,20.0,65,0.00,,,0.20,501.000000,,2013-08-13 15:44:00,
2013-08-13 11:54:00,58.0,46.0,-100.00,NW,326,12.0,20.0,65,0.00,,,0.20,501.000000,,2013-08-13 15:54:00,
2013-08-13 12:04:00,58.0,46.0,-100.00,NW,326,12.0,20.0,65,0.00,,,0.20,501.000000,,2013-08-13 16:04:00,
2013-08-13 12:13:00,58.0,46.0,-100.00,NW,326,12.0,20.0,65,0.00,,,0.20,501.000000,,2013-08-13 16:13:00,
2013-08-13 12:14:00,58.0,44.0,-100.00,NW,315,14.0,25.0,60,0.00,,,0.20,665.000000,,2013-08-13 16:14:00,
2013-08-13 12:45:00,58.0,44.0,-100.00,NW,315,14.0,25.0,60,0.00,,,0.20,665.000000,,2013-08-13 16:45:00,
2013-08-13 12:54:00,58.0,44.0,-100.00,NW,315,14.0,25.0,60,0.00,,,0.20,665.000000,,2013-08-13 16:54:00,
2013-08-13 13:06:00,58.0,44.0,-100.00,NW,315,14.0,25.0,60,0.00,,,0.20,665.000000,,2013-08-13 17:06:00,
2013-08-13 13:14:00,60.0,47.0,-100.00,NW,317,12.0,22.0,61,0.00,,,0.19,829.000000,,2013-08-13 17:14:00,
2013-08-13 13:46:00,-999.0,-99.9,-100.00,NW,317,12.0,22.0,-999,0.00,,,0.19,829.000000,,2013-08-13 17:46:00,
2013-08-13 13:56:00,60.0,47.0,-100.00,NW,317,12.0,22.0,61,0.00,,,0.19,829.000000,,2013-08-13 17:56:00,
2013-08-13 14:05:00,60.0,47.0,-100.00,NW,317,12.0,22.0,61,0.00,,,0.19,829.000000,,2013-08-13 18:05:00,
2013-08-13 14:14:00,57.0,47.0,-100.00,NW,316,14.0,26.0,69,0.00,,,0.01,438.000000,,2013-08-13 18:14:00,
2013-08-13 14:45:00,57.0,47.0,-100.00,NW,316,14.0,26.0,69,0.00,,,0.01,438.000000,,2013-08-13 18:45:00,
2013-08-13 14:56:00,57.0,47.0,-100.00,NW,316,14.0,26.0,69,0.00,,,0.01,438.000000,,2013-08-13 18:56:00,
2013-08-13 15:04:00,57.0,47.0,-100.00,NW,316,14.0,26.0,69,0.00,,,0.01,438.000000,,2013-08-13 19:04:00,
2013-08-13 15:14:00,57.0,46.0,-100.00,NNW,329,11.0,22.0,67,0.00,,,0.01,432.000000,,2013-08-13 19:14:00,
2013-08-13 15:44:00,57.0,46.0,-100.00,NNW,329,11.0,22.0,67,0.00,,,0.01,432.000000,,2013-08-13 19:44:00,
2013-08-13 15:55:00,57.0,46.0,-100.00,NNW,329,11.0,22.0,67,0.00,,,0.01,432.000000,,2013-08-13 19:55:00,
2013-08-13 16:04:00,57.0,46.0,-100.00,NNW,329,11.0,22.0,67,0.00,,,0.01,432.000000,,2013-08-13 20:04:00,
2013-08-13 16:45:00,57.0,47.0,-100.00,NW,316,12.0,21.0,69,0.00,,,0.01,345.000000,,2013-08-13 20:45:00,
2013-08-13 16:53:00,57.0,47.0,-100.00,NW,316,12.0,21.0,69,0.00,,,0.01,345.000000,,2013-08-13 20:53:00,
2013-08-13 17:01:00,57.0,47.0,-100.00,NW,316,12.0,21.0,69,0.00,,,0.01,345.000000,,2013-08-13 21:01:00,
2013-08-13 17:11:00,57.0,47.0,-100.00,NW,316,12.0,21.0,69,0.00,,,0.01,345.000000,,2013-08-13 21:11:00,
2013-08-13 17:46:00,56.0,47.0,-100.00,NNW,327,10.0,22.0,72,0.00,,,0.01,212.000000,,2013-08-13 21:46:00,
2013-08-13 17:54:00,56.0,47.0,-100.00,NNW,327,10.0,22.0,72,0.00,,,0.01,212.000000,,2013-08-13 21:54:00,
2013-08-13 18:04:00,56.0,47.0,-100.00,NNW,327,10.0,22.0,72,0.00,,,0.01,212.000000,,2013-08-13 22:04:00,
2013-08-13 18:13:00,56.0,47.0,-100.00,NNW,327,10.0,22.0,72,0.00,,,0.01,212.000000,,2013-08-13 22:13:00,
2013-08-13 18:50:00,56.0,50.0,-100.00,NW,317,9.0,21.0,79,0.00,,,0.00,214.000000,,2013-08-13 22:50:00,
2013-08-13 18:57:00,56.0,50.0,-100.00,NW,317,9.0,21.0,79,0.00,,,0.00,214.000000,,2013-08-13 22:57:00,
2013-08-13 19:04:00,56.0,50.0,-100.00,NW,317,9.0,21.0,79,0.00,,,0.00,214.000000,,2013-08-13 23:04:00,
2013-08-13 19:13:00,56.0,50.0,-100.00,NW,317,9.0,21.0,79,0.00,,,0.00,214.000000,,2013-08-13 23:13:00,
2013-08-13 19:47:00,58.0,48.0,-100.00,NW,320,11.0,19.0,69,0.00,,,-99.99,234.000000,,2013-08-13 23:47:00,
2013-08-13 19:57:00,58.0,48.0,-100.00,NW,320,11.0,19.0,69,0.00,,,-99.99,234.000000,,2013-08-13 23:57:00,
2013-08-13 20:04:00,58.0,48.0,-100.00,NW,320,11.0,19.0,69,0.00,,,-99.99,234.000000,,2013-08-14 00:04:00,
2013-08-13 20:11:00,58.0,48.0,-100.00,NW,320,11.0,19.0,69,0.00,,,-99.99,234.000000,,2013-08-14 00:11:00,
2013-08-13 20:42:00,57.0,50.0,-100.00,NW,324,8.0,17.0,76,0.00,,,0.00,102.000000,,2013-08-14 00:42:00,
2013-08-13 20:52:00,57.0,50.0,-100.00,NW,324,8.0,17.0,76,0.00,,,0.00,102.000000,,2013-08-14 00:52:00,
2013-08-13 21:01:00,57.0,50.0,-100.00,NW,324,8.0,17.0,76,0.00,,,0.00,102.000000,,2013-08-14 01:01:00,
2013-08-13 21:11:00,57.0,50.0,-100.00,NW,324,8.0,17.0,76,0.00,,,0.00,102.000000,,2013-08-14 01:11:00,
2013-08-13 21:42:00,53.0,49.0,-100.00,WNW,296,7.0,12.0,85,0.00,,,0.00,11.000000,,2013-08-14 01:42:00,
2013-08-13 21:52:00,53.0,49.0,-100.00,WNW,296,7.0,12.0,85,0.00,,,0.00,11.000000,,2013-08-14 01:52:00,
2013-08-13 22:02:00,53.0,49.0,-100.00,WNW,296,7.0,12.0,85,0.00,,,0.00,11.000000,,2013-08-14 02:02:00,
2013-08-13 22:11:00,53.0,49.0,-100.00,WNW,296,7.0,12.0,85,0.00,,,0.00,11.000000,,2013-08-14 02:11:00,
2013-08-13 22:42:00,55.0,51.0,-100.00,NW,326,7.0,12.0,86,0.00,,,0.00,0.000000,,2013-08-14 02:42:00,
2013-08-13 22:52:00,55.0,51.0,-100.00,NW,326,7.0,12.0,86,0.00,,,0.00,0.000000,,2013-08-14 02:52:00,
2013-08-13 23:01:00,55.0,51.0,-100.00,NW,326,7.0,12.0,86,0.00,,,0.00,0.000000,,2013-08-14 03:01:00,
2013-08-13 23:11:00,55.0,51.0,-100.00,NW,326,7.0,12.0,86,0.00,,,0.00,0.000000,,2013-08-14 03:11:00,
2013-08-13 23:43:00,54.0,50.0,-100.00,WNW,298,5.0,12.0,87,0.00,,,0.00,0.000000,,2013-08-14 03:43:00,
2013-08-13 23:53:00,54.0,50.0,-100.00,WNW,298,5.0,12.0,87,0.00,,,0.00,0.000000,,2013-08-14 03:53:00,